Buoy 41997

sailwx.info

Track history (hours):
 
Tides and Currents Weather Stations Pressure Air Temp Water Temp Dewpoint Dewpoint Depression Visibility Wind Speed Wind Dir Waves Ship Positions

Drifting buoy 41997

Last reported at 2015-Mar-26 08:00 UTC. Time now 2015-Mar-27 02:03 UTC.
Position N 27°27' W 046°56'.

Water temperature 22.4 ° C

Date/timePositionNaut miles runAvg speedWind from/ knotsBaromVisibWave heightAir tempDewpointWater temp
2015-Mar-26 08:00N 27°27' W 046°56'2 0.7 22.4
2015-Mar-26 05:00N 27°26' W 046°54'1 0.3 22.4
2015-Mar-26 00:00N 27°25' W 046°53'0 0.0 22.5
2015-Mar-25 20:30N 27°25' W 046°53'0 0.0 22.6
2015-Mar-25 20:15N 27°25' W 046°53'0 0.0 22.6
2015-Mar-25 19:30N 27°25' W 046°53'0 0.0 22.6
2015-Mar-25 16:30N 27°25' W 046°53'2 0.6 22.5
2015-Mar-25 12:45N 27°24' W 046°54'1 1.9 22.3
2015-Mar-25 12:00N 27°24' W 046°53'0 0.0 22.3
2015-Mar-25 11:45N 27°24' W 046°53'0 0.0 22.3
2015-Mar-25 09:45N 27°24' W 046°53'1 1.3 22.3
2015-Mar-25 09:15N 27°24' W 046°54'3 2.9 22.3
2015-Mar-25 08:15N 27°26' W 046°51'0 0.0 22.3
2015-Mar-25 05:15N 27°26' W 046°51'1 0.3 22.3
2015-Mar-25 01:15N 27°26' W 046°50'0 0.0 22.3
2015-Mar-25 01:00N 27°26' W 046°50'0 0.0 22.4
2015-Mar-25 00:15N 27°26' W 046°50'0 0.1 22.4
2015-Mar-24 20:45N 27°27' W 046°50'2 1.9 22.4
2015-Mar-24 19:45N 27°28' W 046°48'0 0.0 22.4
2015-Mar-24 16:45N 27°28' W 046°48'3 1.0 22.4
2015-Mar-24 14:00N 27°27' W 046°45'0 0.0 22.3
2015-Mar-24 13:45N 27°27' W 046°45'0 0.0 22.2
2015-Mar-24 13:00N 27°27' W 046°45'1 0.2 22.2
2015-Mar-24 08:00N 27°28' W 046°45'0 0.0 22.2
2015-Mar-24 07:45N 27°28' W 046°45'0 0.3 22.2
2015-Mar-24 06:45N 27°28' W 046°46'3 0.5 22.2
2015-Mar-24 00:45N 27°28' W 046°42'0 0.0 22.3
2015-Mar-23 23:45N 27°28' W 046°42'2 0.5 22.3
2015-Mar-23 20:00N 27°28' W 046°40'2 0.6 22.4
2015-Mar-23 17:00N 27°29' W 046°38'2 0.3 22.4
2015-Mar-23 10:00N 27°29' W 046°36'0 0.0 22.1
2015-Mar-23 09:00N 27°29' W 046°36'2 1.1 22.1
2015-Mar-23 07:00N 27°30' W 046°34'0 0.0 22.1
2015-Mar-23 05:45N 27°30' W 046°34'0 0.0 22.1
2015-Mar-23 05:30N 27°30' W 046°34'1 0.3 22.1
2015-Mar-23 01:00N 27°29' W 046°33'5 0.4 22.1
2015-Mar-22 12:00N 27°26' W 046°28'1 0.2 22.2
2015-Mar-22 07:15N 27°25' W 046°27'0 1.9 22.4
2015-Mar-22 07:00N 27°25' W 046°27'1 0.3 22.4
2015-Mar-22 04:15N 27°25' W 046°26'0 0.0 22.5
2015-Mar-22 04:00N 27°25' W 046°26'1 0.1 22.5
2015-Mar-21 22:45N 27°24' W 046°26'3 0.2 22.6
2015-Mar-21 09:00N 27°24' W 046°24'0 0.4 22.5
2015-Mar-21 08:30N 27°24' W 046°23'0 0.0 22.5
2015-Mar-21 08:15N 27°24' W 046°23'2 0.7 22.5
2015-Mar-21 06:00N 27°25' W 046°22'2 0.4 22.3
2015-Mar-21 00:45N 27°26' W 046°20'1 1.2 22.2
2015-Mar-21 00:00N 27°27' W 046°20'1 1.0 22.3
2015-Mar-20 23:15N 27°26' W 046°20'0 0.0 22.3
2015-Mar-20 23:00N 27°26' W 046°20'1 0.2 22.3
2015-Mar-20 19:00N 27°26' W 046°19'0 0.0 22.4
2015-Mar-20 18:45N 27°26' W 046°19'3 1.1 22.4
2015-Mar-20 15:45N 27°26' W 046°15'0 0.0 22.3
2015-Mar-20 12:45N 27°26' W 046°15'1 1.8 22.1
2015-Mar-20 12:00N 27°25' W 046°14'2 0.6 22.1
2015-Mar-20 09:15N 27°23' W 046°14'0 0.0 22.1
2015-Mar-20 09:00N 27°23' W 046°14'2 0.6 22.1
2015-Mar-20 06:15N 27°22' W 046°13'0 0.0 22.1
2015-Mar-20 06:00N 27°22' W 046°13'0 0.1 22.1
2015-Mar-20 00:15N 27°22' W 046°13'4 0.9 22.2
2015-Mar-19 20:15N 27°22' W 046°17'0 0.0 22.4
2015-Mar-19 20:00N 27°22' W 046°17'0 0.0 22.4
2015-Mar-19 17:45N 27°22' W 046°17'0 0.0 22.4
2015-Mar-19 16:00N 27°22' W 046°17'1 0.3 22.3
2015-Mar-19 14:00N 27°21' W 046°18'0 0.1 22.2
2015-Mar-19 10:00N 27°21' W 046°18'1 0.6 22.1
2015-Mar-19 07:45N 27°22' W 046°17'0 0.0 22.0
2015-Mar-19 06:30N 27°22' W 046°17'1 3.1 22.0
2015-Mar-19 06:15N 27°23' W 046°17'2 1.3 22.0
2015-Mar-19 04:45N 27°25' W 046°17'0 0.0 22.0
2015-Mar-19 01:30N 27°25' W 046°17'0 0.0 22.0
2015-Mar-19 00:45N 27°25' W 046°17'0 0.0 22.0
2015-Mar-18 23:45N 27°25' W 046°17'1 0.2 22.0
2015-Mar-18 20:45N 27°26' W 046°17'0 0.6 22.1
2015-Mar-18 20:00N 27°26' W 046°17'1 2.2 22.1
2015-Mar-18 19:45N 27°26' W 046°18'1 1.3 22.1
2015-Mar-18 19:15N 27°26' W 046°17'0 0.0 22.1
2015-Mar-18 19:00N 27°26' W 046°17'1 0.6 22.1
2015-Mar-18 17:45N 27°26' W 046°16'0 0.0 22.1
2015-Mar-18 16:15N 27°26' W 046°16'0 0.2 22.1
2015-Mar-18 13:30N 27°26' W 046°17'0 0.6 22.1
2015-Mar-18 12:45N 27°26' W 046°16'1 5.7 22.1
2015-Mar-18 12:30N 27°27' W 046°15'0 0.0 22.1
2015-Mar-18 10:00N 27°27' W 046°15'0 0.3 22.1
2015-Mar-18 08:45N 27°27' W 046°15'0 0.0 22.1
2015-Mar-18 08:00N 27°27' W 046°15'1 4.0 22.1
2015-Mar-18 07:45N 27°28' W 046°14'0 0.0 22.1
2015-Mar-18 06:30N 27°28' W 046°14'0 0.0 22.1
2015-Mar-18 04:45N 27°28' W 046°14'1 0.2 22.2
2015-Mar-18 00:15N 27°29' W 046°13'0 0.0 22.2
2015-Mar-18 00:00N 27°29' W 046°13'0 0.0 22.2
2015-Mar-17 23:15N 27°29' W 046°13'1 0.3 22.2
2015-Mar-17 20:30N 27°28' W 046°13'0 0.0 22.3
2015-Mar-17 20:15N 27°28' W 046°13'0 0.4 22.3
2015-Mar-17 19:30N 27°28' W 046°13'0 0.0 22.3
2015-Mar-17 18:00N 27°28' W 046°13'0 0.0 22.2
2015-Mar-17 16:30N 27°28' W 046°13'0 0.0 22.2
2015-Mar-17 16:15N 27°28' W 046°13'2 0.6 22.2
2015-Mar-17 13:00N 27°28' W 046°11'0 0.0 22.1
2015-Mar-17 12:45N 27°28' W 046°11'0 0.0 22.1
2015-Mar-17 09:15N 27°28' W 046°11'0 1.7 22.0
2015-Mar-17 09:00N 27°28' W 046°10'0 1.4 22.0
2015-Mar-17 08:45N 27°28' W 046°10'0 0.1 22.0
2015-Mar-17 08:00N 27°28' W 046°10'0 0.0 22.0
2015-Mar-17 07:30N 27°28' W 046°10'0 0.0 22.0
2015-Mar-17 06:45N 27°28' W 046°10'1 0.6 22.0
2015-Mar-17 05:00N 27°28' W 046°09'0 0.0 22.0
2015-Mar-17 00:30N 27°28' W 046°09'1 1.0 22.1
2015-Mar-16 23:45N 27°28' W 046°08'1 0.2 22.1
2015-Mar-16 20:45N 27°28' W 046°07'1 1.2 22.2
2015-Mar-16 19:45N 27°28' W 046°09'0 0.0 22.2
2015-Mar-16 19:30N 27°28' W 046°09'1 3.2 22.2
2015-Mar-16 19:15N 27°27' W 046°08'0 0.0 22.2
2015-Mar-16 19:00N 27°27' W 046°08'2 0.7 22.2
2015-Mar-16 16:45N 27°27' W 046°06'0 0.0 22.2
2015-Mar-16 16:30N 27°27' W 046°06'1 0.2 22.2
2015-Mar-16 12:30N 27°27' W 046°05'0 0.0 22.0
2015-Mar-16 11:45N 27°27' W 046°05'0 0.0 22.0
2015-Mar-16 11:30N 27°27' W 046°05'0 0.1 22.0
2015-Mar-16 09:30N 27°27' W 046°05'1 0.4 22.0
2015-Mar-16 08:15N 27°26' W 046°06'0 0.0 21.9
2015-Mar-16 08:00N 27°26' W 046°06'   21.9
Track history (hours):
 
Tides and Currents Weather Stations Pressure Air Temp Water Temp Dewpoint Dewpoint Depression Visibility Wind Speed Wind Dir Waves Ship Positions

Drifting buoy 41997

Last reported at 2015-Mar-26 08:00 UTC. Time now 2015-Mar-27 02:03 UTC.
Position N 27°27' W 046°56'.

Water temperature 22.4 ° C

Date/timePositionNaut miles runAvg speedWind from/ knotsBaromVisibWave heightAir tempDewpointWater temp
2015-Mar-26 08:00N 27°27' W 046°56'2 0.7 22.4
2015-Mar-26 05:00N 27°26' W 046°54'1 0.3 22.4
2015-Mar-26 00:00N 27°25' W 046°53'0 0.0 22.5
2015-Mar-25 20:30N 27°25' W 046°53'0 0.0 22.6
2015-Mar-25 20:15N 27°25' W 046°53'0 0.0 22.6
2015-Mar-25 19:30N 27°25' W 046°53'0 0.0 22.6
2015-Mar-25 16:30N 27°25' W 046°53'2 0.6 22.5
2015-Mar-25 12:45N 27°24' W 046°54'1 1.9 22.3
2015-Mar-25 12:00N 27°24' W 046°53'0 0.0 22.3
2015-Mar-25 11:45N 27°24' W 046°53'0 0.0 22.3
2015-Mar-25 09:45N 27°24' W 046°53'1 1.3 22.3
2015-Mar-25 09:15N 27°24' W 046°54'3 2.9 22.3
2015-Mar-25 08:15N 27°26' W 046°51'0 0.0 22.3
2015-Mar-25 05:15N 27°26' W 046°51'1 0.3 22.3
2015-Mar-25 01:15N 27°26' W 046°50'0 0.0 22.3
2015-Mar-25 01:00N 27°26' W 046°50'0 0.0 22.4
2015-Mar-25 00:15N 27°26' W 046°50'0 0.1 22.4
2015-Mar-24 20:45N 27°27' W 046°50'2 1.9 22.4
2015-Mar-24 19:45N 27°28' W 046°48'0 0.0 22.4
2015-Mar-24 16:45N 27°28' W 046°48'3 1.0 22.4
2015-Mar-24 14:00N 27°27' W 046°45'0 0.0 22.3
2015-Mar-24 13:45N 27°27' W 046°45'0 0.0 22.2
2015-Mar-24 13:00N 27°27' W 046°45'1 0.2 22.2
2015-Mar-24 08:00N 27°28' W 046°45'0 0.0 22.2
2015-Mar-24 07:45N 27°28' W 046°45'0 0.3 22.2
2015-Mar-24 06:45N 27°28' W 046°46'3 0.5 22.2
2015-Mar-24 00:45N 27°28' W 046°42'0 0.0 22.3
2015-Mar-23 23:45N 27°28' W 046°42'2 0.5 22.3
2015-Mar-23 20:00N 27°28' W 046°40'2 0.6 22.4
2015-Mar-23 17:00N 27°29' W 046°38'2 0.3 22.4
2015-Mar-23 10:00N 27°29' W 046°36'0 0.0 22.1
2015-Mar-23 09:00N 27°29' W 046°36'2 1.1 22.1
2015-Mar-23 07:00N 27°30' W 046°34'0 0.0 22.1
2015-Mar-23 05:45N 27°30' W 046°34'0 0.0 22.1
2015-Mar-23 05:30N 27°30' W 046°34'1 0.3 22.1
2015-Mar-23 01:00N 27°29' W 046°33'5 0.4 22.1
2015-Mar-22 12:00N 27°26' W 046°28'1 0.2 22.2
2015-Mar-22 07:15N 27°25' W 046°27'0 1.9 22.4
2015-Mar-22 07:00N 27°25' W 046°27'1 0.3 22.4
2015-Mar-22 04:15N 27°25' W 046°26'0 0.0 22.5
2015-Mar-22 04:00N 27°25' W 046°26'1 0.1 22.5
2015-Mar-21 22:45N 27°24' W 046°26'3 0.2 22.6
2015-Mar-21 09:00N 27°24' W 046°24'0 0.4 22.5
2015-Mar-21 08:30N 27°24' W 046°23'0 0.0 22.5
2015-Mar-21 08:15N 27°24' W 046°23'2 0.7 22.5
2015-Mar-21 06:00N 27°25' W 046°22'2 0.4 22.3
2015-Mar-21 00:45N 27°26' W 046°20'1 1.2 22.2
2015-Mar-21 00:00N 27°27' W 046°20'1 1.0 22.3
2015-Mar-20 23:15N 27°26' W 046°20'0 0.0 22.3
2015-Mar-20 23:00N 27°26' W 046°20'1 0.2 22.3
2015-Mar-20 19:00N 27°26' W 046°19'0 0.0 22.4
2015-Mar-20 18:45N 27°26' W 046°19'3 1.1 22.4
2015-Mar-20 15:45N 27°26' W 046°15'0 0.0 22.3
2015-Mar-20 12:45N 27°26' W 046°15'1 1.8 22.1
2015-Mar-20 12:00N 27°25' W 046°14'2 0.6 22.1
2015-Mar-20 09:15N 27°23' W 046°14'0 0.0 22.1
2015-Mar-20 09:00N 27°23' W 046°14'2 0.6 22.1
2015-Mar-20 06:15N 27°22' W 046°13'0 0.0 22.1
2015-Mar-20 06:00N 27°22' W 046°13'0 0.1 22.1
2015-Mar-20 00:15N 27°22' W 046°13'4 0.9 22.2
2015-Mar-19 20:15N 27°22' W 046°17'0 0.0 22.4
2015-Mar-19 20:00N 27°22' W 046°17'0 0.0 22.4
2015-Mar-19 17:45N 27°22' W 046°17'0 0.0 22.4
2015-Mar-19 16:00N 27°22' W 046°17'1 0.3 22.3
2015-Mar-19 14:00N 27°21' W 046°18'0 0.1 22.2
2015-Mar-19 10:00N 27°21' W 046°18'1 0.6 22.1
2015-Mar-19 07:45N 27°22' W 046°17'0 0.0 22.0
2015-Mar-19 06:30N 27°22' W 046°17'1 3.1 22.0
2015-Mar-19 06:15N 27°23' W 046°17'2 1.3 22.0
2015-Mar-19 04:45N 27°25' W 046°17'0 0.0 22.0
2015-Mar-19 01:30N 27°25' W 046°17'0 0.0 22.0
2015-Mar-19 00:45N 27°25' W 046°17'0 0.0 22.0
2015-Mar-18 23:45N 27°25' W 046°17'1 0.2 22.0
2015-Mar-18 20:45N 27°26' W 046°17'0 0.6 22.1
2015-Mar-18 20:00N 27°26' W 046°17'1 2.2 22.1
2015-Mar-18 19:45N 27°26' W 046°18'1 1.3 22.1
2015-Mar-18 19:15N 27°26' W 046°17'0 0.0 22.1
2015-Mar-18 19:00N 27°26' W 046°17'1 0.6 22.1
2015-Mar-18 17:45N 27°26' W 046°16'0 0.0 22.1
2015-Mar-18 16:15N 27°26' W 046°16'0 0.2 22.1
2015-Mar-18 13:30N 27°26' W 046°17'0 0.6 22.1
2015-Mar-18 12:45N 27°26' W 046°16'1 5.7 22.1
2015-Mar-18 12:30N 27°27' W 046°15'0 0.0 22.1
2015-Mar-18 10:00N 27°27' W 046°15'0 0.3 22.1
2015-Mar-18 08:45N 27°27' W 046°15'0 0.0 22.1
2015-Mar-18 08:00N 27°27' W 046°15'1 4.0 22.1
2015-Mar-18 07:45N 27°28' W 046°14'0 0.0 22.1
2015-Mar-18 06:30N 27°28' W 046°14'0 0.0 22.1
2015-Mar-18 04:45N 27°28' W 046°14'1 0.2 22.2
2015-Mar-18 00:15N 27°29' W 046°13'0 0.0 22.2
2015-Mar-18 00:00N 27°29' W 046°13'0 0.0 22.2
2015-Mar-17 23:15N 27°29' W 046°13'1 0.3 22.2
2015-Mar-17 20:30N 27°28' W 046°13'0 0.0 22.3
2015-Mar-17 20:15N 27°28' W 046°13'0 0.4 22.3
2015-Mar-17 19:30N 27°28' W 046°13'0 0.0 22.3
2015-Mar-17 18:00N 27°28' W 046°13'0 0.0 22.2
2015-Mar-17 16:30N 27°28' W 046°13'0 0.0 22.2
2015-Mar-17 16:15N 27°28' W 046°13'2 0.6 22.2
2015-Mar-17 13:00N 27°28' W 046°11'0 0.0 22.1
2015-Mar-17 12:45N 27°28' W 046°11'0 0.0 22.1
2015-Mar-17 09:15N 27°28' W 046°11'0 1.7 22.0
2015-Mar-17 09:00N 27°28' W 046°10'0 1.4 22.0
2015-Mar-17 08:45N 27°28' W 046°10'0 0.1 22.0
2015-Mar-17 08:00N 27°28' W 046°10'0 0.0 22.0
2015-Mar-17 07:30N 27°28' W 046°10'0 0.0 22.0
2015-Mar-17 06:45N 27°28' W 046°10'1 0.6 22.0
2015-Mar-17 05:00N 27°28' W 046°09'0 0.0 22.0
2015-Mar-17 00:30N 27°28' W 046°09'1 1.0 22.1
2015-Mar-16 23:45N 27°28' W 046°08'1 0.2 22.1
2015-Mar-16 20:45N 27°28' W 046°07'1 1.2 22.2
2015-Mar-16 19:45N 27°28' W 046°09'0 0.0 22.2
2015-Mar-16 19:30N 27°28' W 046°09'1 3.2 22.2
2015-Mar-16 19:15N 27°27' W 046°08'0 0.0 22.2
2015-Mar-16 19:00N 27°27' W 046°08'2 0.7 22.2
2015-Mar-16 16:45N 27°27' W 046°06'0 0.0 22.2
2015-Mar-16 16:30N 27°27' W 046°06'1 0.2 22.2
2015-Mar-16 12:30N 27°27' W 046°05'0 0.0 22.0
2015-Mar-16 11:45N 27°27' W 046°05'0 0.0 22.0
2015-Mar-16 11:30N 27°27' W 046°05'0 0.1 22.0
2015-Mar-16 09:30N 27°27' W 046°05'1 0.4 22.0
2015-Mar-16 08:15N 27°26' W 046°06'0 0.0 21.9
2015-Mar-16 08:00N 27°26' W 046°06'   21.9

Dump ship's entire track history